Strong — WDD9335 — position and weather

sailwx.info

Track history (hours):
 
Tides and Currents Weather Stations Pressure Air Temp Water Temp Dewpoint Dewpoint Depression Visibility Wind Speed Wind Dir Waves Ship Positions

Strong

More information available from US FCC via Universal Licensing System and Coast Guard Vessel Documentation Center.

Last reported at 2014-Aug-14 04:17 UTC. Time now 2014-Sep-03 04:35 UTC.
Position N 30°30' E 032°20'.
Warning: this ship's position is 20 days out of date.

Length 172 m; draft 7.3 m.

Type: Cargo ship. MMSI: 368533000.

Date/timePositionNaut miles runAvg speedWind from/ knotsBaromVisibWave heightAir tempDewpointWater temp
2014-Aug-14 04:17N 30°30' E 032°20'7 7.9
2014-Aug-14 03:27N 30°37' E 032°19'7 7.6
2014-Aug-14 02:33N 30°44' E 032°20'9 8.2
2014-Aug-14 01:31N 30°52' E 032°19'9 8.9
2014-Aug-14 00:32N 31°01' E 032°19'10 9.4
2014-Aug-13 23:31N 31°10' E 032°18'8 7.2
2014-Aug-13 22:23N 31°18' E 032°21'3 4.1
2014-Aug-13 21:33N 31°21' E 032°21'1 1.5
2014-Aug-13 20:33N 31°21' E 032°19'0 0.0
2014-Aug-13 19:32N 31°21' E 032°19'0 0.0
2014-Aug-13 18:22N 31°21' E 032°19'0 0.0
2014-Aug-13 17:24N 31°21' E 032°19'0 0.0
2014-Aug-13 15:19N 31°21' E 032°19'0 0.1
2014-Aug-13 14:30N 31°21' E 032°19'0 0.0
2014-Aug-13 13:33N 31°21' E 032°19'4 3.7
2014-Aug-13 12:33N 31°25' E 032°18'1110.5
2014-Aug-13 11:32N 31°33' E 032°10'1110.8
2014-Aug-13 10:33N 31°41' E 032°02'1110.7
2014-Aug-13 09:33N 31°46' E 031°51'1110.9
2014-Aug-13 08:33N 31°50' E 031°39'1111.0
2014-Aug-13 07:33N 31°54' E 031°27'1110.9
2014-Aug-13 06:33N 31°58' E 031°15'1110.6
2014-Aug-13 05:33N 32°02' E 031°03'1510.8
2014-Aug-13 04:09N 32°09' E 030°47'1110.7
2014-Aug-13 03:08N 32°13' E 030°35'610.7
2014-Aug-13 02:33N 32°15' E 030°28'1110.7
2014-Aug-13 01:33N 32°18' E 030°16'1010.5
2014-Aug-13 00:33N 32°22' E 030°05'1010.2
2014-Aug-12 23:32N 32°26' E 029°54'1010.1
2014-Aug-12 22:33N 32°29' E 029°42'10 9.8
2014-Aug-12 21:33N 32°33' E 029°32'12 9.7
2014-Aug-12 20:16N 32°37' E 029°18'7 9.7
2014-Aug-12 19:33N 32°40' E 029°10'10 9.8
2014-Aug-12 18:33N 32°43' E 028°59'10 9.8
2014-Aug-12 17:33N 32°47' E 028°49'10 9.8
2014-Aug-12 16:32N 32°51' E 028°38'  
2014-Aug-09 18:23N 35°49' E 015°54'15 8.1
2014-Aug-09 16:33N 35°53' E 015°37'8 8.1
2014-Aug-09 15:33N 35°55' E 015°27'8 8.2
2014-Aug-09 14:33N 35°57' E 015°17'8 8.2
2014-Aug-09 13:33N 35°59' E 015°07'8 8.3
2014-Aug-09 12:33N 36°03' E 014°58'8 8.3
2014-Aug-09 11:33N 36°06' E 014°49'8 8.3
2014-Aug-09 10:33N 36°11' E 014°40'9 8.5
2014-Aug-09 09:33N 36°15' E 014°31'9 8.6
2014-Aug-09 08:33N 36°20' E 014°23'9 8.6
2014-Aug-09 07:33N 36°25' E 014°14'8 8.0
2014-Aug-09 06:33N 36°30' E 014°06'6 5.6
2014-Aug-09 05:33N 36°33' E 013°60'8 8.0
2014-Aug-09 04:33N 36°37' E 013°52'8 8.4
2014-Aug-09 03:33N 36°42' E 013°43'8 8.3
2014-Aug-09 02:33N 36°46' E 013°34'8 8.2
2014-Aug-09 01:33N 36°51' E 013°26'9 8.6
2014-Aug-09 00:33N 36°56' E 013°17'9 8.8
2014-Aug-08 23:30N 37°01' E 013°07'26 8.8
2014-Aug-08 20:30N 37°16' E 012°40'9 9.0
2014-Aug-08 19:30N 37°21' E 012°31'233 9.0
2014-Aug-07 17:33N 40°55' E 010°33'19 8.9
2014-Aug-07 15:26N 41°13' E 010°25'10 8.9
2014-Aug-07 14:18N 41°22' E 010°20'7 8.8
2014-Aug-07 13:33N 41°29' E 010°17'11 8.7
2014-Aug-07 12:20N 41°39' E 010°12'7 8.7
2014-Aug-07 11:31N 41°45' E 010°09'8 8.7
2014-Aug-07 10:33N 41°53' E 010°05'9 9.0
2014-Aug-07 09:32N 42°02' E 010°00'9 9.2
2014-Aug-07 08:33N 42°10' E 009°57'9 8.9
2014-Aug-07 07:33N 42°19' E 009°54'9 8.5
2014-Aug-07 06:32N 42°28' E 009°54'8 8.6
2014-Aug-07 05:33N 42°36' E 009°54'9 8.7
2014-Aug-07 04:33N 42°44' E 009°56'9 8.7
2014-Aug-07 03:33N 42°53' E 009°59'9 8.7
2014-Aug-07 02:33N 43°02' E 010°01'9 8.9
2014-Aug-07 01:33N 43°10' E 010°05'9 9.3
2014-Aug-07 00:33N 43°19' E 010°08'9 9.3
2014-Aug-06 23:33N 43°28' E 010°12'7 6.6
2014-Aug-06 22:33N 43°33' E 010°17'1 0.6
2014-Aug-06 21:33N 43°33' E 010°18'0 0.0
2014-Aug-06 20:33N 43°33' E 010°18'0 0.0
2014-Aug-06 19:33N 43°33' E 010°18'0 0.0
2014-Aug-06 18:33N 43°33' E 010°18'0 0.0
2014-Aug-06 17:33N 43°33' E 010°18'0 0.0
2014-Aug-06 16:33N 43°33' E 010°18'0 0.0
2014-Aug-06 15:33N 43°33' E 010°18'0 0.0
2014-Aug-06 14:33N 43°33' E 010°18'0 0.0
2014-Aug-06 13:33N 43°33' E 010°18'0 0.0
2014-Aug-06 12:33N 43°33' E 010°18'0 0.0
2014-Aug-06 11:33N 43°33' E 010°18'0 0.0
2014-Aug-06 10:33N 43°33' E 010°18'0 0.0
2014-Aug-06 09:33N 43°33' E 010°18'0 0.0
2014-Aug-05 21:33N 43°33' E 010°18'0 0.0
2014-Aug-05 20:33N 43°33' E 010°18'0 0.0
2014-Aug-05 19:33N 43°33' E 010°18'0 0.0
2014-Aug-05 18:34N 43°33' E 010°18'0 0.0
2014-Aug-05 17:33N 43°33' E 010°18'0 0.0
2014-Aug-05 16:34N 43°33' E 010°18'0 0.0
2014-Aug-05 15:34N 43°33' E 010°18'0 0.0
2014-Aug-05 14:34N 43°33' E 010°18'0 0.0
2014-Aug-05 13:33N 43°33' E 010°18'0 0.0
2014-Aug-05 12:34N 43°33' E 010°18'0 0.0
2014-Aug-05 11:33N 43°33' E 010°18'0 0.0
2014-Aug-05 10:34N 43°33' E 010°18'0 0.0
2014-Aug-05 09:33N 43°33' E 010°18'0 0.0
2014-Aug-05 08:34N 43°33' E 010°18'0 0.0
2014-Aug-05 07:33N 43°33' E 010°18'0 0.0
2014-Aug-05 06:33N 43°33' E 010°18'0 0.0
2014-Aug-05 05:34N 43°33' E 010°18'0 0.0
2014-Aug-05 04:33N 43°33' E 010°18'0 0.0
2014-Aug-05 03:34N 43°33' E 010°18'0 0.0
2014-Aug-05 02:34N 43°33' E 010°18'0 0.0
2014-Aug-05 01:33N 43°33' E 010°18'0 0.0
2014-Aug-05 00:34N 43°33' E 010°18'0 0.0
2014-Aug-04 23:34N 43°33' E 010°18'0 0.0
2014-Aug-04 22:34N 43°33' E 010°18'0 0.0
2014-Aug-04 21:34N 43°33' E 010°18'0 0.0
2014-Aug-04 20:33N 43°33' E 010°18'0 0.0
2014-Aug-04 19:33N 43°33' E 010°18'0 0.0
2014-Aug-04 18:33N 43°33' E 010°18'0 0.0
2014-Aug-04 17:33N 43°33' E 010°18'0 0.0
2014-Aug-04 16:33N 43°33' E 010°18'0 0.0
2014-Aug-04 15:33N 43°33' E 010°18'0 0.0
2014-Aug-04 14:33N 43°33' E 010°18'0 0.0
2014-Aug-04 13:33N 43°33' E 010°18'0 0.0
2014-Aug-04 12:34N 43°33' E 010°18'0 0.0
2014-Aug-04 11:33N 43°33' E 010°18'0 0.0
2014-Aug-04 10:33N 43°33' E 010°18'0 0.0
2014-Aug-04 09:33N 43°33' E 010°18'0 0.0
2014-Aug-04 08:33N 43°33' E 010°18'0 0.0
2014-Aug-04 07:33N 43°33' E 010°18'0 0.0
2014-Aug-04 06:34N 43°33' E 010°18'0 0.0
2014-Aug-04 05:33N 43°33' E 010°18'0 0.0
2014-Aug-04 04:34N 43°33' E 010°18'  
Track history (hours):
 
Tides and Currents Weather Stations Pressure Air Temp Water Temp Dewpoint Dewpoint Depression Visibility Wind Speed Wind Dir Waves Ship Positions

Strong

More information available from US FCC via Universal Licensing System and Coast Guard Vessel Documentation Center.

Last reported at 2014-Aug-14 04:17 UTC. Time now 2014-Sep-03 04:35 UTC.
Position N 30°30' E 032°20'.
Warning: this ship's position is 20 days out of date.

Length 172 m; draft 7.3 m.

Type: Cargo ship. MMSI: 368533000.

Date/timePositionNaut miles runAvg speedWind from/ knotsBaromVisibWave heightAir tempDewpointWater temp
2014-Aug-14 04:17N 30°30' E 032°20'7 7.9
2014-Aug-14 03:27N 30°37' E 032°19'7 7.6
2014-Aug-14 02:33N 30°44' E 032°20'9 8.2
2014-Aug-14 01:31N 30°52' E 032°19'9 8.9
2014-Aug-14 00:32N 31°01' E 032°19'10 9.4
2014-Aug-13 23:31N 31°10' E 032°18'8 7.2
2014-Aug-13 22:23N 31°18' E 032°21'3 4.1
2014-Aug-13 21:33N 31°21' E 032°21'1 1.5
2014-Aug-13 20:33N 31°21' E 032°19'0 0.0
2014-Aug-13 19:32N 31°21' E 032°19'0 0.0
2014-Aug-13 18:22N 31°21' E 032°19'0 0.0
2014-Aug-13 17:24N 31°21' E 032°19'0 0.0
2014-Aug-13 15:19N 31°21' E 032°19'0 0.1
2014-Aug-13 14:30N 31°21' E 032°19'0 0.0
2014-Aug-13 13:33N 31°21' E 032°19'4 3.7
2014-Aug-13 12:33N 31°25' E 032°18'1110.5
2014-Aug-13 11:32N 31°33' E 032°10'1110.8
2014-Aug-13 10:33N 31°41' E 032°02'1110.7
2014-Aug-13 09:33N 31°46' E 031°51'1110.9
2014-Aug-13 08:33N 31°50' E 031°39'1111.0
2014-Aug-13 07:33N 31°54' E 031°27'1110.9
2014-Aug-13 06:33N 31°58' E 031°15'1110.6
2014-Aug-13 05:33N 32°02' E 031°03'1510.8
2014-Aug-13 04:09N 32°09' E 030°47'1110.7
2014-Aug-13 03:08N 32°13' E 030°35'610.7
2014-Aug-13 02:33N 32°15' E 030°28'1110.7
2014-Aug-13 01:33N 32°18' E 030°16'1010.5
2014-Aug-13 00:33N 32°22' E 030°05'1010.2
2014-Aug-12 23:32N 32°26' E 029°54'1010.1
2014-Aug-12 22:33N 32°29' E 029°42'10 9.8
2014-Aug-12 21:33N 32°33' E 029°32'12 9.7
2014-Aug-12 20:16N 32°37' E 029°18'7 9.7
2014-Aug-12 19:33N 32°40' E 029°10'10 9.8
2014-Aug-12 18:33N 32°43' E 028°59'10 9.8
2014-Aug-12 17:33N 32°47' E 028°49'10 9.8
2014-Aug-12 16:32N 32°51' E 028°38'  
2014-Aug-09 18:23N 35°49' E 015°54'15 8.1
2014-Aug-09 16:33N 35°53' E 015°37'8 8.1
2014-Aug-09 15:33N 35°55' E 015°27'8 8.2
2014-Aug-09 14:33N 35°57' E 015°17'8 8.2
2014-Aug-09 13:33N 35°59' E 015°07'8 8.3
2014-Aug-09 12:33N 36°03' E 014°58'8 8.3
2014-Aug-09 11:33N 36°06' E 014°49'8 8.3
2014-Aug-09 10:33N 36°11' E 014°40'9 8.5
2014-Aug-09 09:33N 36°15' E 014°31'9 8.6
2014-Aug-09 08:33N 36°20' E 014°23'9 8.6
2014-Aug-09 07:33N 36°25' E 014°14'8 8.0
2014-Aug-09 06:33N 36°30' E 014°06'6 5.6
2014-Aug-09 05:33N 36°33' E 013°60'8 8.0
2014-Aug-09 04:33N 36°37' E 013°52'8 8.4
2014-Aug-09 03:33N 36°42' E 013°43'8 8.3
2014-Aug-09 02:33N 36°46' E 013°34'8 8.2
2014-Aug-09 01:33N 36°51' E 013°26'9 8.6
2014-Aug-09 00:33N 36°56' E 013°17'9 8.8
2014-Aug-08 23:30N 37°01' E 013°07'26 8.8
2014-Aug-08 20:30N 37°16' E 012°40'9 9.0
2014-Aug-08 19:30N 37°21' E 012°31'233 9.0
2014-Aug-07 17:33N 40°55' E 010°33'19 8.9
2014-Aug-07 15:26N 41°13' E 010°25'10 8.9
2014-Aug-07 14:18N 41°22' E 010°20'7 8.8
2014-Aug-07 13:33N 41°29' E 010°17'11 8.7
2014-Aug-07 12:20N 41°39' E 010°12'7 8.7
2014-Aug-07 11:31N 41°45' E 010°09'8 8.7
2014-Aug-07 10:33N 41°53' E 010°05'9 9.0
2014-Aug-07 09:32N 42°02' E 010°00'9 9.2
2014-Aug-07 08:33N 42°10' E 009°57'9 8.9
2014-Aug-07 07:33N 42°19' E 009°54'9 8.5
2014-Aug-07 06:32N 42°28' E 009°54'8 8.6
2014-Aug-07 05:33N 42°36' E 009°54'9 8.7
2014-Aug-07 04:33N 42°44' E 009°56'9 8.7
2014-Aug-07 03:33N 42°53' E 009°59'9 8.7
2014-Aug-07 02:33N 43°02' E 010°01'9 8.9
2014-Aug-07 01:33N 43°10' E 010°05'9 9.3
2014-Aug-07 00:33N 43°19' E 010°08'9 9.3
2014-Aug-06 23:33N 43°28' E 010°12'7 6.6
2014-Aug-06 22:33N 43°33' E 010°17'1 0.6
2014-Aug-06 21:33N 43°33' E 010°18'0 0.0
2014-Aug-06 20:33N 43°33' E 010°18'0 0.0
2014-Aug-06 19:33N 43°33' E 010°18'0 0.0
2014-Aug-06 18:33N 43°33' E 010°18'0 0.0
2014-Aug-06 17:33N 43°33' E 010°18'0 0.0
2014-Aug-06 16:33N 43°33' E 010°18'0 0.0
2014-Aug-06 15:33N 43°33' E 010°18'0 0.0
2014-Aug-06 14:33N 43°33' E 010°18'0 0.0
2014-Aug-06 13:33N 43°33' E 010°18'0 0.0
2014-Aug-06 12:33N 43°33' E 010°18'0 0.0
2014-Aug-06 11:33N 43°33' E 010°18'0 0.0
2014-Aug-06 10:33N 43°33' E 010°18'0 0.0
2014-Aug-06 09:33N 43°33' E 010°18'0 0.0
2014-Aug-05 21:33N 43°33' E 010°18'0 0.0
2014-Aug-05 20:33N 43°33' E 010°18'0 0.0
2014-Aug-05 19:33N 43°33' E 010°18'0 0.0
2014-Aug-05 18:34N 43°33' E 010°18'0 0.0
2014-Aug-05 17:33N 43°33' E 010°18'0 0.0
2014-Aug-05 16:34N 43°33' E 010°18'0 0.0
2014-Aug-05 15:34N 43°33' E 010°18'0 0.0
2014-Aug-05 14:34N 43°33' E 010°18'0 0.0
2014-Aug-05 13:33N 43°33' E 010°18'0 0.0
2014-Aug-05 12:34N 43°33' E 010°18'0 0.0
2014-Aug-05 11:33N 43°33' E 010°18'0 0.0
2014-Aug-05 10:34N 43°33' E 010°18'0 0.0
2014-Aug-05 09:33N 43°33' E 010°18'0 0.0
2014-Aug-05 08:34N 43°33' E 010°18'0 0.0
2014-Aug-05 07:33N 43°33' E 010°18'0 0.0
2014-Aug-05 06:33N 43°33' E 010°18'0 0.0
2014-Aug-05 05:34N 43°33' E 010°18'0 0.0
2014-Aug-05 04:33N 43°33' E 010°18'0 0.0
2014-Aug-05 03:34N 43°33' E 010°18'0 0.0
2014-Aug-05 02:34N 43°33' E 010°18'0 0.0
2014-Aug-05 01:33N 43°33' E 010°18'0 0.0
2014-Aug-05 00:34N 43°33' E 010°18'0 0.0
2014-Aug-04 23:34N 43°33' E 010°18'0 0.0
2014-Aug-04 22:34N 43°33' E 010°18'0 0.0
2014-Aug-04 21:34N 43°33' E 010°18'0 0.0
2014-Aug-04 20:33N 43°33' E 010°18'0 0.0
2014-Aug-04 19:33N 43°33' E 010°18'0 0.0
2014-Aug-04 18:33N 43°33' E 010°18'0 0.0
2014-Aug-04 17:33N 43°33' E 010°18'0 0.0
2014-Aug-04 16:33N 43°33' E 010°18'0 0.0
2014-Aug-04 15:33N 43°33' E 010°18'0 0.0
2014-Aug-04 14:33N 43°33' E 010°18'0 0.0
2014-Aug-04 13:33N 43°33' E 010°18'0 0.0
2014-Aug-04 12:34N 43°33' E 010°18'0 0.0
2014-Aug-04 11:33N 43°33' E 010°18'0 0.0
2014-Aug-04 10:33N 43°33' E 010°18'0 0.0
2014-Aug-04 09:33N 43°33' E 010°18'0 0.0
2014-Aug-04 08:33N 43°33' E 010°18'0 0.0
2014-Aug-04 07:33N 43°33' E 010°18'0 0.0
2014-Aug-04 06:34N 43°33' E 010°18'0 0.0
2014-Aug-04 05:33N 43°33' E 010°18'0 0.0
2014-Aug-04 04:34N 43°33' E 010°18'  

Dump ship's entire track history